createdAt,value
2018-10-18T00:00:03.031Z,24.27
2018-10-18T00:02:31.130Z,27.17
2018-10-18T00:04:59.194Z,25.40
2018-10-18T00:07:27.265Z,27.83
2018-10-18T00:09:55.398Z,26.50
2018-10-18T00:12:23.489Z,24.50
2018-10-18T00:14:51.586Z,23.87
2018-10-18T00:17:19.644Z,26.90
2018-10-18T00:19:47.749Z,27.50
2018-10-18T00:22:15.836Z,25.80
2018-10-18T00:24:43.912Z,27.07
2018-10-18T00:27:12.006Z,25.97
2018-10-18T00:29:40.098Z,26.50
2018-10-18T00:32:08.174Z,25.53
2018-10-18T00:34:36.214Z,27.60
2018-10-18T00:37:04.447Z,25.80
2018-10-18T00:39:32.536Z,28.43
2018-10-18T00:42:00.671Z,26.00
2018-10-18T00:44:28.709Z,26.53
2018-10-18T00:46:56.798Z,29.07
2018-10-18T00:49:24.857Z,24.33
2018-10-18T00:51:52.918Z,26.70
2018-10-18T00:54:21.045Z,29.97
2018-10-18T00:56:49.125Z,25.33
2018-10-18T00:59:17.229Z,24.77
2018-10-18T01:01:45.286Z,27.60
2018-10-18T01:04:13.381Z,29.00
2018-10-18T01:06:41.564Z,27.87
2018-10-18T01:09:09.624Z,27.80
2018-10-18T01:11:37.673Z,24.70
2018-10-18T01:14:05.863Z,25.80
2018-10-18T01:16:33.906Z,26.77
2018-10-18T01:19:02.062Z,28.17
2018-10-18T01:21:30.168Z,26.93
2018-10-18T01:23:58.296Z,24.60
2018-10-18T01:26:26.337Z,29.03
2018-10-18T01:28:54.403Z,29.20
2018-10-18T01:31:22.598Z,30.23
2018-10-18T01:33:50.707Z,26.53
2018-10-18T01:36:18.793Z,29.70
2018-10-18T01:38:46.937Z,29.10
2018-10-18T01:41:15.060Z,30.27
2018-10-18T01:43:43.105Z,25.50
2018-10-18T01:46:11.244Z,29.93
2018-10-18T01:48:39.415Z,27.97
2018-10-18T01:51:07.537Z,29.63
2018-10-18T01:53:35.618Z,28.73
2018-10-18T01:56:04.118Z,29.67
2018-10-18T01:58:32.104Z,29.50
2018-10-18T02:01:00.159Z,30.93
2018-10-18T02:03:28.209Z,28.33
2018-10-18T02:05:56.407Z,29.43
2018-10-18T02:08:24.510Z,30.10
2018-10-18T02:10:52.584Z,30.87
2018-10-18T02:13:20.613Z,29.40
2018-10-18T02:15:48.741Z,28.63
2018-10-18T02:18:17.002Z,29.03
2018-10-18T02:20:44.891Z,30.77
2018-10-18T02:23:12.998Z,31.90
2018-10-18T02:25:41.165Z,26.50
2018-10-18T02:28:09.246Z,30.20
2018-10-18T02:30:37.292Z,30.20
2018-10-18T02:33:05.418Z,30.40
2018-10-18T02:35:33.519Z,28.67
2018-10-18T02:38:01.609Z,26.93
2018-10-18T02:40:29.736Z,26.97
2018-10-18T02:42:57.840Z,27.97
2018-10-18T02:45:25.934Z,26.53
2018-10-18T02:47:54.087Z,23.00
2018-10-18T02:50:22.195Z,27.10
2018-10-18T02:52:50.325Z,27.20
2018-10-18T02:55:18.422Z,25.43
2018-10-18T02:57:46.507Z,29.33
2018-10-18T03:00:14.685Z,28.30
2018-10-18T03:02:42.711Z,27.43
2018-10-18T03:05:10.821Z,29.03
2018-10-18T03:07:38.889Z,28.77
2018-10-18T03:10:06.960Z,29.17
2018-10-18T03:12:35.038Z,29.07
2018-10-18T03:15:03.428Z,28.63
2018-10-18T03:17:31.576Z,30.17
2018-10-18T03:19:59.648Z,26.70
2018-10-18T03:22:27.723Z,27.97
2018-10-18T03:24:55.847Z,28.10
2018-10-18T03:27:23.914Z,27.57
2018-10-18T03:29:52.004Z,28.93
2018-10-18T03:32:20.094Z,29.03
2018-10-18T03:34:48.180Z,29.53
2018-10-18T03:37:16.262Z,28.43
2018-10-18T03:39:44.321Z,28.57
2018-10-18T03:42:12.489Z,29.93
2018-10-18T03:44:40.470Z,27.77
2018-10-18T03:47:08.560Z,28.63
2018-10-18T03:49:36.693Z,28.10
2018-10-18T03:52:05.072Z,28.70
2018-10-18T03:54:33.155Z,29.33
2018-10-18T03:57:01.272Z,27.63
2018-10-18T03:59:29.347Z,22.90
2018-10-18T04:01:57.483Z,22.17
2018-10-18T04:04:25.557Z,22.50
2018-10-18T04:06:53.647Z,24.70
2018-10-18T04:09:21.704Z,25.57
2018-10-18T04:11:49.790Z,26.63
2018-10-18T04:14:17.857Z,25.17
2018-10-18T04:16:45.952Z,22.63
2018-10-18T04:19:14.061Z,21.43
2018-10-18T04:21:42.112Z,21.70
2018-10-18T04:24:10.277Z,22.10
2018-10-18T04:26:38.270Z,21.67
2018-10-18T04:29:06.370Z,23.83
2018-10-18T04:31:34.451Z,20.07
2018-10-18T04:34:02.551Z,24.43
2018-10-18T04:36:30.614Z,24.67
2018-10-18T04:38:58.679Z,24.20
2018-10-18T04:41:26.759Z,26.27
2018-10-18T04:43:54.813Z,23.53
2018-10-18T04:46:22.900Z,22.07
2018-10-18T04:48:50.996Z,21.43
2018-10-18T04:51:19.046Z,24.07
2018-10-18T04:53:47.144Z,24.33
2018-10-18T04:56:15.198Z,26.70
2018-10-18T04:58:43.246Z,22.40
2018-10-18T05:01:11.453Z,25.00
2018-10-18T05:03:39.419Z,24.83
2018-10-18T05:06:07.561Z,22.13
2018-10-18T05:08:35.618Z,19.57
2018-10-18T05:11:03.765Z,23.03
2018-10-18T05:13:31.867Z,21.83
2018-10-18T05:15:59.935Z,24.30
2018-10-18T05:18:28.001Z,22.57
2018-10-18T05:20:56.128Z,19.90
2018-10-18T05:23:24.173Z,24.53
2018-10-18T05:25:52.290Z,17.83
2018-10-18T05:28:20.424Z,21.27
2018-10-18T05:30:48.530Z,17.13
2018-10-18T05:33:16.598Z,25.17
2018-10-18T05:35:44.682Z,23.50
2018-10-18T05:38:13.197Z,22.43
2018-10-18T05:40:41.411Z,19.83
2018-10-18T05:43:09.505Z,12.03
2018-10-18T05:45:37.660Z,21.63
2018-10-18T05:48:05.755Z,18.30
2018-10-18T05:50:33.884Z,18.10
2018-10-18T05:53:02.011Z,17.83
2018-10-18T05:55:30.038Z,18.73
2018-10-18T05:57:58.165Z,15.77
2018-10-18T06:00:26.352Z,15.07
2018-10-18T06:02:54.431Z,17.43
2018-10-18T06:05:22.537Z,19.63
2018-10-18T06:07:50.641Z,20.17
2018-10-18T06:10:30.151Z,21.03
2018-10-18T06:12:58.223Z,21.00
2018-10-18T06:15:26.277Z,21.20
2018-10-18T06:17:54.393Z,21.17
2018-10-18T06:20:22.465Z,21.27
2018-10-18T06:22:50.622Z,21.97
2018-10-18T06:25:18.682Z,21.53
2018-10-18T06:27:46.722Z,16.87
2018-10-18T06:30:15.749Z,17.23
2018-10-18T06:32:43.813Z,19.93
2018-10-18T06:35:11.915Z,21.30
2018-10-18T06:37:39.983Z,20.60
2018-10-18T06:40:09.373Z,21.97
2018-10-18T06:42:37.466Z,22.40
2018-10-18T06:45:06.536Z,22.17
2018-10-18T06:47:34.656Z,20.87
2018-10-18T06:50:02.791Z,20.87
2018-10-18T06:52:30.926Z,22.33
2018-10-18T06:54:58.977Z,19.23
2018-10-18T06:57:27.021Z,19.20
2018-10-18T06:59:55.187Z,27.90
2018-10-18T07:02:23.134Z,29.67
2018-10-18T07:04:51.193Z,23.80
2018-10-18T07:07:19.263Z,18.90
2018-10-18T07:09:47.323Z,18.17
2018-10-18T07:12:15.445Z,16.77
2018-10-18T07:14:43.472Z,17.70
2018-10-18T07:17:11.572Z,16.77
2018-10-18T07:19:39.628Z,16.80
2018-10-18T07:22:07.669Z,15.97
2018-10-18T07:24:35.734Z,16.17
2018-10-18T07:27:04.409Z,16.67
2018-10-18T07:29:32.481Z,15.30
2018-10-18T07:32:00.577Z,16.47
2018-10-18T07:34:28.643Z,15.63
2018-10-18T07:36:56.714Z,16.47
2018-10-18T07:39:25.290Z,18.10
2018-10-18T07:41:53.416Z,15.83
2018-10-18T07:44:21.472Z,14.30
2018-10-18T07:46:49.637Z,16.33
2018-10-18T07:49:17.693Z,13.80
2018-10-18T07:51:45.784Z,16.70
2018-10-18T07:54:13.930Z,17.43
2018-10-18T07:56:41.916Z,18.40
2018-10-18T07:59:10.006Z,16.30
2018-10-18T08:01:38.086Z,17.70
2018-10-18T08:04:06.186Z,16.60
2018-10-18T08:06:34.257Z,19.03
2018-10-18T08:09:02.329Z,17.20
2018-10-18T08:11:30.471Z,19.17
2018-10-18T08:13:58.601Z,18.67
2018-10-18T08:16:26.675Z,11.27
2018-10-18T08:18:55.314Z,16.13
2018-10-18T08:21:23.385Z,16.30
2018-10-18T08:23:51.482Z,15.73
2018-10-18T08:26:19.492Z,16.73
2018-10-18T08:28:47.563Z,15.23
2018-10-18T08:31:15.733Z,15.73
2018-10-18T08:33:43.653Z,12.47
2018-10-18T08:36:11.714Z,15.40
2018-10-18T08:38:39.789Z,15.03
2018-10-18T08:41:07.846Z,13.63
2018-10-18T08:43:35.918Z,14.70
2018-10-18T08:46:04.229Z,15.77
2018-10-18T08:48:32.324Z,14.27
2018-10-18T08:51:00.366Z,14.80
2018-10-18T08:53:28.441Z,12.87
2018-10-18T08:55:56.508Z,10.87
2018-10-18T08:58:24.603Z,8.93
2018-10-18T09:00:52.767Z,11.20
2018-10-18T09:03:20.844Z,11.97
2018-10-18T09:05:48.928Z,13.27
2018-10-18T09:08:16.979Z,13.67
2018-10-18T09:10:45.040Z,11.47
2018-10-18T09:13:13.140Z,12.97
2018-10-18T09:15:41.206Z,13.33
2018-10-18T09:18:09.285Z,11.93
2018-10-18T09:20:37.351Z,12.77
2018-10-18T09:23:05.554Z,11.17
2018-10-18T09:25:34.486Z,12.50
2018-10-18T09:28:02.586Z,10.87
2018-10-18T09:30:30.906Z,10.33
2018-10-18T09:32:58.779Z,11.00
2018-10-18T09:35:26.807Z,9.60
2018-10-18T09:37:54.853Z,6.93
2018-10-18T09:40:22.927Z,7.23
2018-10-18T09:42:51.052Z,6.77
2018-10-18T09:45:19.093Z,6.10
2018-10-18T09:47:47.182Z,5.87
2018-10-18T09:50:15.213Z,6.17
2018-10-18T09:52:43.277Z,5.70
2018-10-18T09:55:11.457Z,5.47
2018-10-18T09:57:39.421Z,5.07
2018-10-18T10:00:07.717Z,5.60
2018-10-18T10:02:35.826Z,5.47
2018-10-18T10:05:04.329Z,5.67
2018-10-18T10:07:32.363Z,5.97
2018-10-18T10:10:00.451Z,5.43
2018-10-18T10:12:28.565Z,5.40
2018-10-18T10:14:57.381Z,4.70
2018-10-18T10:17:25.394Z,4.80
2018-10-18T10:19:53.449Z,4.80
2018-10-18T10:22:21.506Z,4.20
2018-10-18T10:24:49.603Z,4.70
2018-10-18T10:27:17.709Z,5.00
2018-10-18T10:29:45.814Z,4.80
2018-10-18T10:32:13.919Z,5.93
2018-10-18T10:34:42.005Z,7.40
2018-10-18T10:37:10.092Z,7.00
2018-10-18T10:39:38.143Z,7.43
2018-10-18T10:42:06.265Z,5.77
2018-10-18T10:44:34.378Z,7.57
2018-10-18T10:47:02.433Z,7.23
2018-10-18T10:49:30.611Z,7.07
2018-10-18T10:51:58.833Z,8.37
2018-10-18T10:54:26.858Z,8.27
2018-10-18T10:56:55.004Z,7.53
2018-10-18T10:59:23.080Z,9.47
2018-10-18T11:01:51.146Z,6.93
2018-10-18T11:04:19.217Z,9.43
2018-10-18T11:06:47.325Z,8.93
2018-10-18T11:09:16.505Z,10.13
2018-10-18T11:11:44.558Z,9.87
2018-10-18T11:14:13.764Z,11.63
2018-10-18T11:16:41.876Z,12.03
2018-10-18T11:19:09.939Z,10.90
2018-10-18T11:21:38.061Z,10.43
2018-10-18T11:24:06.257Z,9.33
2018-10-18T11:26:34.291Z,9.37
2018-10-18T11:29:02.413Z,8.27
2018-10-18T11:31:30.475Z,8.60
2018-10-18T11:33:58.538Z,8.47
2018-10-18T11:36:26.625Z,8.90
2018-10-18T11:38:54.687Z,9.07
2018-10-18T11:41:22.837Z,8.43
2018-10-18T11:43:50.909Z,8.60
2018-10-18T11:46:18.965Z,7.37
2018-10-18T11:48:47.045Z,7.17
2018-10-18T11:51:15.117Z,7.73
2018-10-18T11:53:43.190Z,7.33
2018-10-18T11:56:11.352Z,7.47
2018-10-18T11:58:39.402Z,8.17
2018-10-18T12:01:07.554Z,6.60
2018-10-18T12:03:35.599Z,7.27
2018-10-18T12:06:03.675Z,6.63
2018-10-18T12:08:31.734Z,5.73
2018-10-18T12:10:59.833Z,6.00
2018-10-18T12:13:27.893Z,5.07
2018-10-18T12:15:55.946Z,5.40
2018-10-18T12:18:23.968Z,5.80
2018-10-18T12:20:52.089Z,6.50
2018-10-18T12:23:20.164Z,5.87
2018-10-18T12:25:48.294Z,7.23
2018-10-18T12:28:16.326Z,6.40
2018-10-18T12:30:44.411Z,5.33
2018-10-18T12:33:12.470Z,6.73
2018-10-18T12:35:40.582Z,7.70
2018-10-18T12:38:08.737Z,7.57
2018-10-18T12:40:36.873Z,9.60
2018-10-18T12:43:04.948Z,8.70
2018-10-18T12:45:33.026Z,8.77
2018-10-18T12:48:01.138Z,8.27
2018-10-18T12:50:29.185Z,9.53
2018-10-18T12:52:57.257Z,8.13
2018-10-18T12:55:25.329Z,9.57
2018-10-18T12:57:53.405Z,7.47
2018-10-18T13:00:21.465Z,9.63
2018-10-18T13:02:49.630Z,11.30
2018-10-18T13:05:17.798Z,9.53
2018-10-18T13:07:45.885Z,9.80
2018-10-18T13:10:13.967Z,9.67
2018-10-18T13:12:42.124Z,8.80
2018-10-18T13:15:10.173Z,8.27
2018-10-18T13:17:38.369Z,8.63
2018-10-18T13:20:07.108Z,7.73
2018-10-18T13:22:35.107Z,7.83
2018-10-18T13:25:03.309Z,7.77
2018-10-18T13:27:31.386Z,8.33
2018-10-18T13:29:59.498Z,7.60
2018-10-18T13:32:27.542Z,8.43
2018-10-18T13:34:55.620Z,9.33
2018-10-18T13:37:23.667Z,8.23
2018-10-18T13:39:52.031Z,7.03
2018-10-18T13:42:20.498Z,9.20
2018-10-18T13:44:48.661Z,7.87
2018-10-18T13:47:16.753Z,7.63
2018-10-18T13:49:44.822Z,6.00
2018-10-18T13:52:12.885Z,6.10
2018-10-18T13:54:40.980Z,6.07
2018-10-18T13:57:09.065Z,5.53
2018-10-18T13:59:48.485Z,3.43
2018-10-18T14:02:16.582Z,2.30
2018-10-18T14:04:44.656Z,2.27
2018-10-18T14:07:12.783Z,1.93
2018-10-18T14:09:40.854Z,1.83
2018-10-18T14:12:08.959Z,2.10
2018-10-18T14:14:37.113Z,2.60
2018-10-18T14:17:05.316Z,3.60
2018-10-18T14:19:33.362Z,3.63
2018-10-18T14:22:01.499Z,2.70
2018-10-18T14:24:29.571Z,3.30
2018-10-18T14:26:57.654Z,3.07
2018-10-18T14:29:25.860Z,2.93
2018-10-18T14:31:54.092Z,3.17
2018-10-18T14:34:22.133Z,2.73
2018-10-18T14:36:50.441Z,2.70
2018-10-18T14:39:18.557Z,2.70
2018-10-18T14:41:46.786Z,3.03
2018-10-18T14:44:15.042Z,3.20
2018-10-18T14:46:43.271Z,3.17
2018-10-18T14:49:11.584Z,3.70
2018-10-18T14:51:39.672Z,3.47
2018-10-18T14:54:07.761Z,4.10
2018-10-18T14:56:35.838Z,4.70
2018-10-18T14:59:04.202Z,4.47
2018-10-18T15:01:32.210Z,4.67
2018-10-18T15:04:00.310Z,5.23
2018-10-18T15:06:28.388Z,5.00
2018-10-18T15:08:56.437Z,5.03
2018-10-18T15:11:24.561Z,5.47
2018-10-18T15:13:52.694Z,5.73
2018-10-18T15:16:20.814Z,4.73
2018-10-18T15:18:48.878Z,5.20
2018-10-18T15:21:16.978Z,5.90
2018-10-18T15:23:45.103Z,5.57
2018-10-18T15:26:13.245Z,5.07
2018-10-18T15:28:41.214Z,6.10
2018-10-18T15:31:09.263Z,5.80
2018-10-18T15:33:37.330Z,6.37
2018-10-18T15:36:05.394Z,5.67
2018-10-18T15:38:33.694Z,5.57
2018-10-18T15:41:01.752Z,5.53
2018-10-18T15:43:29.789Z,5.43
2018-10-18T15:45:57.850Z,4.60
2018-10-18T15:48:25.890Z,5.97
2018-10-18T15:50:53.967Z,6.43
2018-10-18T15:53:22.024Z,6.50
2018-10-18T15:55:50.142Z,6.77
2018-10-18T15:58:18.251Z,6.20
2018-10-18T16:00:46.311Z,6.27
2018-10-18T16:03:14.405Z,6.33
2018-10-18T16:05:42.462Z,6.33
2018-10-18T16:08:10.539Z,6.23
2018-10-18T16:10:38.613Z,6.73
2018-10-18T16:13:06.710Z,5.47
2018-10-18T16:15:34.767Z,7.03
2018-10-18T16:18:02.862Z,5.90
2018-10-18T16:20:30.923Z,6.40
2018-10-18T16:22:59.001Z,5.83
2018-10-18T16:25:27.066Z,6.17
2018-10-18T16:27:55.130Z,7.00
2018-10-18T16:30:23.226Z,7.00
2018-10-18T16:32:51.334Z,9.37
2018-10-18T16:35:19.480Z,6.50
2018-10-18T16:37:47.637Z,9.20
2018-10-18T16:40:15.836Z,9.60
2018-10-18T16:42:44.002Z,8.10
2018-10-18T16:45:13.177Z,8.90
2018-10-18T16:47:41.348Z,7.27
2018-10-18T16:50:09.503Z,6.93
2018-10-18T16:52:37.442Z,7.23
2018-10-18T16:55:05.845Z,6.90
2018-10-18T16:57:33.924Z,7.17
2018-10-18T17:00:02.121Z,6.73
2018-10-18T17:02:30.174Z,7.00
2018-10-18T17:04:58.233Z,7.37
2018-10-18T17:07:26.302Z,7.53
2018-10-18T17:09:54.388Z,8.40
2018-10-18T17:12:22.443Z,8.40
2018-10-18T17:14:50.489Z,8.27
2018-10-18T17:17:18.754Z,8.60
2018-10-18T17:19:46.849Z,8.70
2018-10-18T17:22:14.985Z,9.60
2018-10-18T17:24:43.060Z,9.47
2018-10-18T17:27:11.192Z,10.43
2018-10-18T17:29:39.253Z,9.70
2018-10-18T17:32:07.411Z,11.77
2018-10-18T17:34:35.478Z,10.17
2018-10-18T17:37:03.589Z,9.63
2018-10-18T17:39:31.642Z,10.73
2018-10-18T17:41:59.730Z,10.97
2018-10-18T17:44:27.789Z,11.97
2018-10-18T17:46:55.943Z,12.20
2018-10-18T17:49:24.185Z,11.77
2018-10-18T17:51:52.590Z,13.13
2018-10-18T17:54:20.699Z,11.93
2018-10-18T17:56:48.761Z,14.03
2018-10-18T17:59:16.909Z,14.63
2018-10-18T18:01:45.057Z,15.53
2018-10-18T18:04:13.203Z,14.87
2018-10-18T18:06:41.527Z,15.40
2018-10-18T18:09:09.469Z,13.00
2018-10-18T18:11:37.490Z,13.87
2018-10-18T18:14:05.623Z,12.67
2018-10-18T18:16:33.766Z,13.43
2018-10-18T18:19:01.890Z,12.33
2018-10-18T18:21:30.149Z,12.00
2018-10-18T18:23:58.285Z,11.23
2018-10-18T18:26:32.656Z,10.00
2018-10-18T18:28:54.656Z,8.53
2018-10-18T18:31:22.738Z,8.40
2018-10-18T18:33:50.896Z,9.50
2018-10-18T18:36:19.027Z,8.97
2018-10-18T18:38:47.234Z,10.63
2018-10-18T18:41:15.313Z,10.80
2018-10-18T18:43:43.530Z,10.70
2018-10-18T18:46:12.010Z,10.73
2018-10-18T18:48:40.128Z,10.47
2018-10-18T18:51:08.248Z,12.00
2018-10-18T18:53:36.415Z,12.70
2018-10-18T18:56:04.643Z,15.20
2018-10-18T18:58:32.765Z,16.63
2018-10-18T19:01:00.917Z,16.70
2018-10-18T19:03:29.071Z,16.50
2018-10-18T19:05:57.244Z,15.20
2018-10-18T19:08:25.425Z,16.00
2018-10-18T19:10:53.581Z,17.37
2018-10-18T19:13:22.002Z,18.20
2018-10-18T19:15:50.022Z,17.17
2018-10-18T19:18:18.477Z,15.90
2018-10-18T19:20:47.145Z,13.47
2018-10-18T19:23:18.178Z,11.10
2018-10-18T19:25:46.262Z,9.33
2018-10-18T19:30:50.313Z,8.40
2018-10-18T19:33:18.472Z,7.70
2018-10-18T19:35:46.624Z,7.77
2018-10-18T19:38:14.932Z,6.50
2018-10-18T19:40:42.997Z,6.87
2018-10-18T19:43:11.258Z,6.80
2018-10-18T19:45:39.571Z,7.07
2018-10-18T19:48:07.689Z,6.93
2018-10-18T19:50:35.878Z,8.10
2018-10-18T19:53:04.502Z,9.20
2018-10-18T19:55:40.379Z,9.50
2018-10-18T19:58:09.148Z,9.80
2018-10-18T20:00:37.165Z,11.67
2018-10-18T20:03:05.429Z,13.33
2018-10-18T20:05:33.487Z,14.70
2018-10-18T20:08:01.918Z,14.93
2018-10-18T20:10:30.028Z,14.90
2018-10-18T20:12:58.165Z,14.23
2018-10-18T20:15:26.282Z,15.43
2018-10-18T20:17:54.622Z,15.83
2018-10-18T20:20:22.851Z,15.27
2018-10-18T20:22:50.986Z,13.87
2018-10-18T20:25:19.123Z,13.10
2018-10-18T20:27:47.208Z,13.17
2018-10-18T20:30:15.388Z,12.00
2018-10-18T20:32:43.574Z,12.27
2018-10-18T20:35:11.719Z,11.90
2018-10-18T20:37:39.880Z,12.30
2018-10-18T20:40:09.305Z,11.10
2018-10-18T20:42:37.471Z,12.93
2018-10-18T20:45:06.211Z,12.40
2018-10-18T20:47:34.468Z,12.43
2018-10-18T20:50:02.486Z,13.10
2018-10-18T20:52:30.628Z,13.57
2018-10-18T20:54:58.697Z,12.90
2018-10-18T20:57:26.779Z,14.03
2018-10-18T20:59:55.233Z,16.23
2018-10-18T21:02:23.276Z,18.53
2018-10-18T21:04:51.316Z,20.27
2018-10-18T21:07:19.403Z,20.83
2018-10-18T21:09:47.481Z,23.97
2018-10-18T21:12:15.662Z,22.23
2018-10-18T21:14:43.743Z,21.67
2018-10-18T21:17:11.905Z,19.93
2018-10-18T21:19:39.906Z,19.20
2018-10-18T21:22:07.980Z,16.80
2018-10-18T21:24:36.108Z,14.80
2018-10-18T21:27:04.279Z,13.07
2018-10-18T21:29:32.343Z,12.63
2018-10-18T21:32:00.485Z,11.67
2018-10-18T21:34:28.659Z,11.97
2018-10-18T21:36:57.516Z,11.17
2018-10-18T21:39:28.128Z,11.30
2018-10-18T21:41:56.142Z,11.80
2018-10-18T21:44:25.623Z,11.57
2018-10-18T21:46:53.753Z,11.57
2018-10-18T21:49:21.823Z,11.67
2018-10-18T21:51:49.906Z,10.97
2018-10-18T21:54:17.962Z,11.83
2018-10-18T21:56:45.998Z,13.07
2018-10-18T21:59:14.069Z,10.70
2018-10-18T22:01:42.220Z,11.07
2018-10-18T22:04:10.354Z,11.40
2018-10-18T22:06:38.426Z,12.47
2018-10-18T22:09:06.604Z,11.77
2018-10-18T22:11:34.613Z,12.17
2018-10-18T22:14:02.775Z,12.60
2018-10-18T22:16:30.825Z,12.90
2018-10-18T22:18:58.891Z,12.00
2018-10-18T22:21:26.962Z,12.07
2018-10-18T22:23:55.059Z,12.87
2018-10-18T22:26:23.217Z,12.60
2018-10-18T22:28:51.285Z,13.70
2018-10-18T22:31:19.385Z,13.60
2018-10-18T22:33:47.455Z,13.97
2018-10-18T22:36:16.159Z,13.83
2018-10-18T22:38:44.188Z,14.77
2018-10-18T22:41:12.394Z,15.93
2018-10-18T22:43:40.362Z,14.77
2018-10-18T22:46:08.389Z,14.27
2018-10-18T22:48:36.468Z,15.00
2018-10-18T22:51:04.699Z,16.23
2018-10-18T22:53:32.784Z,17.33
2018-10-18T22:56:00.934Z,16.77
2018-10-18T22:58:29.001Z,17.20
2018-10-18T23:00:57.396Z,18.23
2018-10-18T23:03:25.437Z,16.97
2018-10-18T23:05:53.554Z,16.80
2018-10-18T23:08:21.602Z,18.30
2018-10-18T23:10:49.693Z,18.93
2018-10-18T23:13:17.753Z,18.60
2018-10-18T23:15:45.793Z,20.17
2018-10-18T23:18:13.866Z,21.30
2018-10-18T23:20:41.917Z,19.27
2018-10-18T23:23:10.107Z,21.33
2018-10-18T23:25:38.076Z,20.20
2018-10-18T23:28:06.189Z,20.20
2018-10-18T23:30:34.326Z,20.50
2018-10-18T23:33:02.404Z,20.50
2018-10-18T23:35:30.470Z,19.03
2018-10-18T23:37:58.539Z,19.93
2018-10-18T23:40:26.573Z,19.43
2018-10-18T23:42:54.740Z,18.90
2018-10-18T23:45:22.838Z,17.80
2018-10-18T23:47:50.865Z,17.63
2018-10-18T23:50:18.926Z,16.50
2018-10-18T23:52:46.970Z,15.70
2018-10-18T23:55:15.053Z,14.70
2018-10-18T23:57:43.101Z,14.97
